Time;durP1;ratioP1;P1;durP2;ratioP2;P2;SDS_P1;SDS_P2;PMS_P1;PMS_P2;Temp;Humidity;BMP_temperature;BMP_pressure;BME280_temperature;BME280_humidity;BME280_pressure;Samples;Min_cycle;Max_cycle;Signal;HPM_P1;HPM_P2
2023/03/06 00:00:42;;;;;;;10.23;9.57;;;;;;;;;;5058694;28;20044;-54
2023/03/06 00:03:08;;;;;;;10.30;9.65;;;;;;;;;;5056397;28;20604;-54
2023/03/06 00:05:33;;;;;;;10.80;10.02;;;;;;;;;;5058877;28;20048;-56
2023/03/06 00:07:58;;;;;;;11.05;10.35;;;;;;;;;;5059343;28;20048;-55
2023/03/06 00:10:26;;;;;;;11.43;10.65;;;;;;;;;;5056068;28;20044;-55
2023/03/06 00:12:55;;;;;;;11.50;10.70;;;;;;;;;;5060823;28;20028;-54
2023/03/06 00:15:20;;;;;;;9.70;9.10;;;;;;;;;;5060791;28;20078;-55
2023/03/06 00:17:47;;;;;;;10.85;10.13;;;;;;;;;;5060906;28;20060;-55
2023/03/06 00:20:12;;;;;;;10.05;9.45;;;;;;;;;;5060102;28;20032;-55
2023/03/06 00:22:38;;;;;;;10.95;10.25;;;;;;;;;;5061593;28;20047;-55
2023/03/06 00:25:05;;;;;;;12.30;11.23;;;;;;;;;;5063465;28;20036;-55
2023/03/06 00:27:31;;;;;;;12.82;11.45;;;;;;;;;;5060681;28;20067;-56
2023/03/06 00:29:58;;;;;;;11.35;10.55;;;;;;;;;;5063740;28;20066;-53
2023/03/06 00:32:25;;;;;;;11.98;10.90;;;;;;;;;;5061978;28;20047;-55
2023/03/06 00:34:51;;;;;;;11.60;10.80;;;;;;;;;;5062405;28;20090;-55
2023/03/06 00:37:17;;;;;;;11.20;10.50;;;;;;;;;;5060601;28;20036;-55
2023/03/06 00:39:42;;;;;;;11.38;10.68;;;;;;;;;;5060305;28;20990;-55
2023/03/06 00:42:07;;;;;;;10.90;10.20;;;;;;;;;;5058162;28;20473;-54
2023/03/06 00:44:33;;;;;;;10.90;10.20;;;;;;;;;;5059042;28;20032;-55
2023/03/06 00:46:58;;;;;;;11.20;10.40;;;;;;;;;;5060288;28;20469;-53
2023/03/06 00:49:23;;;;;;;10.73;10.02;;;;;;;;;;5058626;28;20511;-55
2023/03/06 00:51:49;;;;;;;10.98;10.27;;;;;;;;;;5060696;28;20095;-54
2023/03/06 00:54:14;;;;;;;11.80;10.68;;;;;;;;;;5061210;28;20036;-55
2023/03/06 00:56:40;;;;;;;9.90;9.30;;;;;;;;;;5062623;28;20040;-55
2023/03/06 00:59:05;;;;;;;10.40;9.77;;;;;;;;;;5063043;28;20485;-55
2023/03/06 01:01:30;;;;;;;10.68;9.98;;;;;;;;;;5062055;28;20660;-53
2023/03/06 01:03:56;;;;;;;11.30;10.48;;;;;;;;;;5063109;28;20036;-53
2023/03/06 01:06:21;;;;;;;10.95;10.05;;;;;;;;;;5061234;28;20104;-54
2023/03/06 01:08:47;;;;;;;11.20;10.50;;;;;;;;;;5065361;28;20343;-54
2023/03/06 01:11:12;;;;;;;11.15;10.45;;;;;;;;;;5063647;28;20040;-53
2023/03/06 01:13:37;;;;;;;10.15;9.50;;;;;;;;;;5061215;28;20119;-51
2023/03/06 01:16:11;;;;;;;9.90;9.27;;;;;;;;;;5063531;28;20484;-55
2023/03/06 01:18:37;;;;;;;10.98;10.27;;;;;;;;;;5064825;28;20040;-54
2023/03/06 01:21:03;;;;;;;9.60;8.95;;;;;;;;;;5064856;28;20032;-54
2023/03/06 01:23:29;;;;;;;9.98;9.27;;;;;;;;;;5064039;28;20924;-53
2023/03/06 01:25:54;;;;;;;10.82;10.02;;;;;;;;;;5064817;28;20041;-51
2023/03/06 01:28:20;;;;;;;10.48;9.77;;;;;;;;;;5063725;28;20040;-54
2023/03/06 01:30:45;;;;;;;9.50;8.90;;;;;;;;;;5065600;28;20090;-53
2023/03/06 01:33:10;;;;;;;10.70;9.80;;;;;;;;;;5061434;28;20033;-54
2023/03/06 01:35:39;;;;;;;9.50;8.90;;;;;;;;;;5063774;28;20033;-53
2023/03/06 01:38:04;;;;;;;9.93;9.23;;;;;;;;;;5063963;28;20040;-54
2023/03/06 01:40:31;;;;;;;10.40;9.70;;;;;;;;;;5064644;28;20044;-52
2023/03/06 01:42:57;;;;;;;10.38;9.68;;;;;;;;;;5064548;28;20040;-53
2023/03/06 01:45:22;;;;;;;10.15;9.40;;;;;;;;;;5063605;28;20139;-54
2023/03/06 01:47:47;;;;;;;10.38;9.68;;;;;;;;;;5064325;28;20470;-53
2023/03/06 01:50:13;;;;;;;11.63;10.60;;;;;;;;;;5061856;28;20036;-50
2023/03/06 01:52:56;;;;;;;10.60;9.90;;;;;;;;;;5064488;28;20683;-54
2023/03/06 01:55:26;;;;;;;9.95;9.25;;;;;;;;;;5062341;28;20033;-52
2023/03/06 01:57:56;;;;;;;10.57;9.82;;;;;;;;;;5061971;28;20071;-53
2023/03/06 02:00:25;;;;;;;10.05;9.35;;;;;;;;;;5063001;28;20094;-52
2023/03/06 02:02:53;;;;;;;9.77;9.18;;;;;;;;;;5055212;28;20037;-54
2023/03/06 02:05:20;;;;;;;10.52;9.82;;;;;;;;;;5063626;28;20051;-53
2023/03/06 02:07:47;;;;;;;10.43;9.73;;;;;;;;;;5063386;28;20047;-53
2023/03/06 02:10:13;;;;;;;10.13;9.43;;;;;;;;;;5062993;28;20040;-53
2023/03/06 02:12:42;;;;;;;10.05;9.32;;;;;;;;;;5064082;28;20025;-51
2023/03/06 02:15:08;;;;;;;10.35;9.75;;;;;;;;;;5063022;28;20036;-50
2023/03/06 02:17:35;;;;;;;9.98;9.30;;;;;;;;;;5062809;28;20374;-51
2023/03/06 02:20:12;;;;;;;10.38;9.57;;;;;;;;;;5064503;28;20068;-54
2023/03/06 02:22:49;;;;;;;11.00;10.30;;;;;;;;;;5063436;28;20100;-50
2023/03/06 02:25:35;;;;;;;11.20;10.38;;;;;;;;;;5061964;28;20047;-52
2023/03/06 02:28:01;;;;;;;10.13;9.52;;;;;;;;;;5062798;28;20036;-53
2023/03/06 02:30:28;;;;;;;10.40;9.73;;;;;;;;;;5060223;28;20066;-50
2023/03/06 02:32:53;;;;;;;11.13;10.38;;;;;;;;;;5063149;28;20102;-52
2023/03/06 02:35:23;;;;;;;10.80;10.10;;;;;;;;;;5062593;28;20040;-52
2023/03/06 02:37:50;;;;;;;10.38;9.77;;;;;;;;;;5060985;28;20043;-51
2023/03/06 02:40:17;;;;;;;10.48;9.77;;;;;;;;;;5061076;28;20151;-54
2023/03/06 02:42:52;;;;;;;10.90;10.20;;;;;;;;;;5062552;28;20690;-52
2023/03/06 02:45:29;;;;;;;11.35;10.45;;;;;;;;;;5061787;28;20040;-53
2023/03/06 02:47:54;;;;;;;10.27;9.50;;;;;;;;;;5064179;28;20029;-54
2023/03/06 02:50:19;;;;;;;10.77;10.07;;;;;;;;;;5061057;28;20048;-52
2023/03/06 02:52:45;;;;;;;10.15;9.55;;;;;;;;;;5064155;28;20036;-54
2023/03/06 02:55:10;;;;;;;11.10;9.95;;;;;;;;;;5063850;28;20090;-54
2023/03/06 02:57:35;;;;;;;9.98;9.32;;;;;;;;;;5061573;28;20036;-52
2023/03/06 03:00:01;;;;;;;9.65;9.05;;;;;;;;;;5062312;28;20032;-54
2023/03/06 03:02:26;;;;;;;10.90;10.20;;;;;;;;;;5061159;28;20090;-51
2023/03/06 03:04:51;;;;;;;9.88;9.27;;;;;;;;;;5064413;28;20279;-51
2023/03/06 03:07:17;;;;;;;10.88;10.18;;;;;;;;;;5062656;28;20052;-53
2023/03/06 03:09:42;;;;;;;10.15;9.45;;;;;;;;;;5064054;28;20028;-52
2023/03/06 03:12:08;;;;;;;11.40;10.50;;;;;;;;;;5056217;28;20024;-53
2023/03/06 03:14:33;;;;;;;10.98;10.27;;;;;;;;;;5062990;28;20036;-53
2023/03/06 03:16:59;;;;;;;10.68;9.98;;;;;;;;;;5066716;28;20039;-54
2023/03/06 03:19:24;;;;;;;11.27;10.57;;;;;;;;;;5064253;28;20336;-55
2023/03/06 03:21:50;;;;;;;10.88;10.18;;;;;;;;;;5067095;28;20170;-52
2023/03/06 03:24:15;;;;;;;11.52;10.82;;;;;;;;;;5064857;28;20399;-54
2023/03/06 03:26:41;;;;;;;10.88;10.18;;;;;;;;;;5064377;28;20314;-55
2023/03/06 03:29:08;;;;;;;10.93;10.13;;;;;;;;;;5066498;28;20024;-54
2023/03/06 03:31:33;;;;;;;9.70;9.10;;;;;;;;;;5064109;28;20434;-51
2023/03/06 03:33:59;;;;;;;11.43;10.63;;;;;;;;;;5066464;28;20087;-54
2023/03/06 03:36:26;;;;;;;10.15;9.55;;;;;;;;;;5061581;28;20524;-54
2023/03/06 03:38:52;;;;;;;11.43;10.73;;;;;;;;;;5063969;28;20540;-55
2023/03/06 03:41:17;;;;;;;11.20;10.40;;;;;;;;;;5064146;28;20142;-55
2023/03/06 03:43:43;;;;;;;10.70;9.90;;;;;;;;;;5063199;28;20031;-55
2023/03/06 03:46:08;;;;;;;11.18;10.48;;;;;;;;;;5063978;28;20428;-54
2023/03/06 03:48:33;;;;;;;12.65;11.88;;;;;;;;;;5063280;28;20048;-55
2023/03/06 03:51:07;;;;;;;9.98;9.38;;;;;;;;;;5065104;28;20102;-54
2023/03/06 03:53:33;;;;;;;10.18;9.57;;;;;;;;;;5066020;28;20116;-52
2023/03/06 03:55:58;;;;;;;9.77;9.18;;;;;;;;;;5067118;28;20133;-55
2023/03/06 03:58:23;;;;;;;10.95;10.25;;;;;;;;;;5063677;28;20024;-52
2023/03/06 04:00:49;;;;;;;10.25;9.55;;;;;;;;;;5066406;28;20036;-53
2023/03/06 04:03:14;;;;;;;10.02;9.43;;;;;;;;;;5066104;28;20025;-55
2023/03/06 04:05:39;;;;;;;10.40;9.60;;;;;;;;;;5064072;28;20032;-55
2023/03/06 04:08:05;;;;;;;12.27;11.32;;;;;;;;;;5066405;28;20370;-53
2023/03/06 04:10:30;;;;;;;10.68;9.98;;;;;;;;;;5064884;28;20134;-55
2023/03/06 04:12:56;;;;;;;9.55;8.95;;;;;;;;;;5066053;28;20081;-56
2023/03/06 04:15:21;;;;;;;11.18;10.48;;;;;;;;;;5065536;28;20032;-55
2023/03/06 04:17:47;;;;;;;10.73;10.02;;;;;;;;;;5063590;28;20038;-55
2023/03/06 04:20:13;;;;;;;9.65;9.02;;;;;;;;;;5065024;28;20040;-54
2023/03/06 04:22:38;;;;;;;10.43;9.73;;;;;;;;;;5062845;28;20115;-55
2023/03/06 04:25:04;;;;;;;10.77;10.07;;;;;;;;;;5065898;28;20154;-55
2023/03/06 04:27:30;;;;;;;10.15;9.55;;;;;;;;;;5063367;28;20041;-55
2023/03/06 04:29:55;;;;;;;10.82;10.02;;;;;;;;;;5064560;28;20040;-55
2023/03/06 04:32:21;;;;;;;10.07;9.38;;;;;;;;;;5064651;28;20047;-55
2023/03/06 04:34:47;;;;;;;10.80;10.10;;;;;;;;;;5063869;28;20021;-52
2023/03/06 04:37:19;;;;;;;10.23;9.63;;;;;;;;;;5065474;28;20040;-55
2023/03/06 04:39:44;;;;;;;10.48;9.77;;;;;;;;;;5063119;28;20056;-55
2023/03/06 04:42:10;;;;;;;10.90;10.20;;;;;;;;;;5066434;28;20535;-56
2023/03/06 04:44:35;;;;;;;9.95;9.35;;;;;;;;;;5064975;28;20040;-55
2023/03/06 04:47:00;;;;;;;10.07;9.25;;;;;;;;;;5063810;28;20086;-52
2023/03/06 04:49:26;;;;;;;10.20;9.50;;;;;;;;;;5063705;28;20036;-55
2023/03/06 04:51:51;;;;;;;9.60;8.98;;;;;;;;;;5064334;28;20062;-52
2023/03/06 04:54:16;;;;;;;9.93;9.32;;;;;;;;;;5065592;28;20109;-55
2023/03/06 04:56:42;;;;;;;9.75;9.05;;;;;;;;;;5062868;28;20071;-54
2023/03/06 04:59:07;;;;;;;10.15;9.45;;;;;;;;;;5045813;28;20032;-55
2023/03/06 05:01:32;;;;;;;9.85;9.25;;;;;;;;;;5064439;28;20124;-54
2023/03/06 05:03:58;;;;;;;9.65;9.05;;;;;;;;;;5064541;28;20036;-55
2023/03/06 05:06:23;;;;;;;11.43;9.73;;;;;;;;;;5061333;28;20039;-55
2023/03/06 05:08:48;;;;;;;10.73;10.02;;;;;;;;;;5061845;28;20040;-53
2023/03/06 05:11:14;;;;;;;10.15;9.25;;;;;;;;;;5063229;28;20044;-55
2023/03/06 05:13:39;;;;;;;10.32;9.55;;;;;;;;;;5062310;28;20024;-55
2023/03/06 05:16:05;;;;;;;11.18;10.38;;;;;;;;;;5063735;28;20055;-55
2023/03/06 05:18:32;;;;;;;9.20;8.60;;;;;;;;;;5060189;28;20104;-54
2023/03/06 05:20:58;;;;;;;10.68;9.95;;;;;;;;;;5062367;28;20071;-55
2023/03/06 05:23:29;;;;;;;10.30;9.40;;;;;;;;;;5062126;28;20039;-54
2023/03/06 05:25:55;;;;;;;10.10;9.50;;;;;;;;;;5062864;28;20046;-55
2023/03/06 05:28:21;;;;;;;10.30;9.60;;;;;;;;;;5062550;28;20173;-55
2023/03/06 05:30:47;;;;;;;10.68;9.98;;;;;;;;;;5062809;28;20107;-55
2023/03/06 05:33:13;;;;;;;10.35;9.65;;;;;;;;;;5064786;28;20174;-55
2023/03/06 05:35:38;;;;;;;10.30;9.60;;;;;;;;;;5064429;28;20119;-55
2023/03/06 05:38:03;;;;;;;10.32;9.63;;;;;;;;;;5064217;28;20032;-55
2023/03/06 05:40:29;;;;;;;10.88;10.18;;;;;;;;;;5060987;28;20032;-55
2023/03/06 05:42:54;;;;;;;10.40;9.35;;;;;;;;;;5060940;28;20525;-55
2023/03/06 05:45:20;;;;;;;11.32;10.32;;;;;;;;;;5062990;28;20147;-56
2023/03/06 05:47:45;;;;;;;9.45;8.85;;;;;;;;;;5061813;28;21485;-55
2023/03/06 05:50:12;;;;;;;9.25;8.65;;;;;;;;;;5062177;28;20032;-55
2023/03/06 05:52:38;;;;;;;10.65;9.95;;;;;;;;;;5062028;28;20476;-55
2023/03/06 05:55:04;;;;;;;10.35;9.65;;;;;;;;;;5060944;28;20037;-57
2023/03/06 05:57:30;;;;;;;10.25;9.55;;;;;;;;;;5061589;28;20036;-56
2023/03/06 05:59:55;;;;;;;12.05;11.07;;;;;;;;;;5060099;28;20032;-56
2023/03/06 06:02:20;;;;;;;10.63;9.93;;;;;;;;;;5062517;28;20462;-55
2023/03/06 06:04:46;;;;;;;10.15;9.50;;;;;;;;;;5061948;28;21402;-56
2023/03/06 06:07:13;;;;;;;11.18;10.27;;;;;;;;;;5059469;28;20684;-56
2023/03/06 06:09:39;;;;;;;11.05;10.35;;;;;;;;;;5060047;28;20036;-56
2023/03/06 06:12:04;;;;;;;11.27;10.48;;;;;;;;;;5061741;28;20056;-55
2023/03/06 06:14:32;;;;;;;10.55;9.80;;;;;;;;;;5058528;28;20669;-54
2023/03/06 06:16:58;;;;;;;10.40;9.73;;;;;;;;;;5060130;28;20056;-57
2023/03/06 06:19:23;;;;;;;10.23;9.52;;;;;;;;;;5061000;28;20032;-56
2023/03/06 06:21:53;;;;;;;12.73;11.63;;;;;;;;;;5060178;28;20075;-55
2023/03/06 06:24:21;;;;;;;10.60;9.80;;;;;;;;;;5061271;28;20095;-55
2023/03/06 06:26:50;;;;;;;10.25;9.55;;;;;;;;;;5060248;28;20029;-56
2023/03/06 06:29:15;;;;;;;10.82;10.13;;;;;;;;;;5061270;28;20036;-56
2023/03/06 06:31:41;;;;;;;10.55;9.85;;;;;;;;;;5060741;28;20253;-55
2023/03/06 06:34:08;;;;;;;10.50;9.65;;;;;;;;;;5060375;28;20416;-56
2023/03/06 06:36:34;;;;;;;11.50;10.43;;;;;;;;;;5058783;28;20066;-56
2023/03/06 06:38:59;;;;;;;10.18;9.48;;;;;;;;;;5060574;28;20037;-55
2023/03/06 06:41:25;;;;;;;11.52;10.75;;;;;;;;;;5060104;28;20052;-55
2023/03/06 06:43:51;;;;;;;10.77;9.98;;;;;;;;;;5059415;28;20064;-55
2023/03/06 06:46:17;;;;;;;10.57;9.88;;;;;;;;;;5059634;28;20060;-55
2023/03/06 06:48:42;;;;;;;11.05;10.35;;;;;;;;;;5059025;28;20040;-55
2023/03/06 06:51:08;;;;;;;10.30;9.50;;;;;;;;;;5064165;28;20024;-55
2023/03/06 06:53:33;;;;;;;11.80;10.85;;;;;;;;;;5064255;28;20035;-56
2023/03/06 06:55:58;;;;;;;10.20;9.60;;;;;;;;;;5063970;28;20125;-55
2023/03/06 06:58:24;;;;;;;10.32;9.63;;;;;;;;;;5063727;28;20051;-56
2023/03/06 07:00:50;;;;;;;9.82;9.23;;;;;;;;;;5063506;28;20036;-54
2023/03/06 07:03:16;;;;;;;11.45;10.63;;;;;;;;;;5064050;28;20036;-55
2023/03/06 07:05:41;;;;;;;10.07;9.45;;;;;;;;;;5062827;28;20041;-55
2023/03/06 07:08:07;;;;;;;10.18;9.57;;;;;;;;;;5063476;28;20032;-53
2023/03/06 07:10:34;;;;;;;10.57;9.88;;;;;;;;;;5063946;28;20036;-55
2023/03/06 07:13:00;;;;;;;9.93;9.23;;;;;;;;;;5062814;28;20029;-56
2023/03/06 07:15:26;;;;;;;9.60;9.00;;;;;;;;;;5064892;28;20582;-56
2023/03/06 07:17:52;;;;;;;10.65;9.93;;;;;;;;;;5063413;28;20047;-56
2023/03/06 07:20:19;;;;;;;11.13;10.43;;;;;;;;;;5064768;28;20040;-55
2023/03/06 07:22:45;;;;;;;10.95;10.20;;;;;;;;;;5062025;28;20120;-56
2023/03/06 07:25:10;;;;;;;9.93;9.32;;;;;;;;;;5063433;28;20521;-56
2023/03/06 07:27:36;;;;;;;11.10;10.40;;;;;;;;;;5062995;28;20047;-55
2023/03/06 07:30:02;;;;;;;11.70;10.80;;;;;;;;;;5064560;28;20454;-56
2023/03/06 07:32:27;;;;;;;12.52;11.43;;;;;;;;;;5060954;28;20033;-55
2023/03/06 07:34:52;;;;;;;12.82;11.93;;;;;;;;;;5060447;28;20038;-57
2023/03/06 07:37:18;;;;;;;10.50;9.85;;;;;;;;;;5060827;28;20062;-56
2023/03/06 07:39:43;;;;;;;11.20;10.48;;;;;;;;;;5062949;28;20068;-57
2023/03/06 07:42:12;;;;;;;11.43;10.73;;;;;;;;;;5063439;28;20094;-57
2023/03/06 07:44:38;;;;;;;11.07;10.38;;;;;;;;;;5061806;28;20516;-56
2023/03/06 07:47:04;;;;;;;11.63;10.93;;;;;;;;;;5060232;28;20036;-57
2023/03/06 07:49:30;;;;;;;12.68;11.73;;;;;;;;;;5062341;28;20055;-57
2023/03/06 07:51:57;;;;;;;11.70;10.77;;;;;;;;;;5061806;28;20104;-57
2023/03/06 07:54:22;;;;;;;12.65;11.75;;;;;;;;;;5062938;28;20036;-57
2023/03/06 07:56:51;;;;;;;12.05;11.25;;;;;;;;;;5060990;28;20048;-56
2023/03/06 07:59:17;;;;;;;12.70;11.80;;;;;;;;;;5059518;28;20307;-57
2023/03/06 08:01:42;;;;;;;11.25;10.55;;;;;;;;;;5060996;28;20078;-57
2023/03/06 08:04:08;;;;;;;11.48;10.70;;;;;;;;;;5062461;28;20496;-57
2023/03/06 08:06:33;;;;;;;11.40;10.50;;;;;;;;;;5061494;28;20032;-57
2023/03/06 08:08:58;;;;;;;13.00;11.88;;;;;;;;;;5063211;28;20377;-56
2023/03/06 08:11:27;;;;;;;12.75;11.75;;;;;;;;;;5063618;28;20036;-55
2023/03/06 08:13:53;;;;;;;12.05;11.35;;;;;;;;;;5061406;28;20440;-53
2023/03/06 08:16:29;;;;;;;13.63;12.63;;;;;;;;;;5063198;28;20068;-55
2023/03/06 08:18:55;;;;;;;13.07;12.27;;;;;;;;;;5064842;28;20582;-55
2023/03/06 08:21:23;;;;;;;13.50;12.70;;;;;;;;;;5062715;28;20035;-56
2023/03/06 08:23:49;;;;;;;11.35;10.65;;;;;;;;;;5062076;28;20058;-56
2023/03/06 08:26:17;;;;;;;13.95;12.95;;;;;;;;;;5063289;28;20040;-56
2023/03/06 08:28:43;;;;;;;12.52;11.73;;;;;;;;;;5065819;28;20079;-56
2023/03/06 08:31:10;;;;;;;13.35;12.35;;;;;;;;;;5065938;28;20091;-56
2023/03/06 08:33:35;;;;;;;12.05;11.35;;;;;;;;;;5065464;28;20089;-55
2023/03/06 08:36:01;;;;;;;11.77;11.07;;;;;;;;;;5065149;28;20454;-56
2023/03/06 08:38:26;;;;;;;12.75;11.95;;;;;;;;;;5064584;28;20063;-56
2023/03/06 08:40:51;;;;;;;12.68;11.88;;;;;;;;;;5064984;28;20044;-57
2023/03/06 08:43:17;;;;;;;13.23;12.35;;;;;;;;;;5065236;28;20469;-56
2023/03/06 08:45:42;;;;;;;11.65;10.95;;;;;;;;;;5064098;28;20382;-57
2023/03/06 08:48:07;;;;;;;12.93;12.13;;;;;;;;;;5065186;28;20390;-56
2023/03/06 08:50:33;;;;;;;13.70;12.90;;;;;;;;;;5064574;28;20329;-56
2023/03/06 08:52:58;;;;;;;11.60;10.90;;;;;;;;;;5063598;28;20083;-56
2023/03/06 08:55:23;;;;;;;11.65;10.88;;;;;;;;;;5064309;28;20024;-56
2023/03/06 08:57:49;;;;;;;13.32;12.27;;;;;;;;;;5064174;28;20164;-55
2023/03/06 09:00:15;;;;;;;11.63;10.88;;;;;;;;;;5065810;28;20044;-55
2023/03/06 09:02:40;;;;;;;11.85;11.15;;;;;;;;;;5062403;28;20039;-56
2023/03/06 09:05:07;;;;;;;12.50;11.70;;;;;;;;;;5063999;28;20029;-54
2023/03/06 09:07:33;;;;;;;13.85;12.95;;;;;;;;;;5062000;28;20091;-55
2023/03/06 09:09:59;;;;;;;13.00;12.20;;;;;;;;;;5063172;28;20028;-56
2023/03/06 09:12:24;;;;;;;12.30;11.55;;;;;;;;;;5063920;28;20039;-56
2023/03/06 09:14:50;;;;;;;13.05;12.15;;;;;;;;;;5062616;28;20465;-56
2023/03/06 09:17:15;;;;;;;13.75;12.85;;;;;;;;;;5064088;28;20092;-56
2023/03/06 09:19:41;;;;;;;12.57;11.77;;;;;;;;;;5064425;28;20037;-56
2023/03/06 09:22:06;;;;;;;12.15;11.35;;;;;;;;;;5063425;28;20478;-56
2023/03/06 09:24:32;;;;;;;11.75;10.95;;;;;;;;;;5063510;28;20047;-57
2023/03/06 09:26:57;;;;;;;13.65;12.75;;;;;;;;;;5060055;28;20043;-56
2023/03/06 09:29:22;;;;;;;13.40;12.52;;;;;;;;;;5062507;28;20032;-56
2023/03/06 09:31:48;;;;;;;13.00;12.15;;;;;;;;;;5062833;28;20426;-57
2023/03/06 09:34:13;;;;;;;12.68;11.80;;;;;;;;;;5062617;28;20092;-57
2023/03/06 09:36:40;;;;;;;11.93;11.13;;;;;;;;;;5062690;28;20455;-55
2023/03/06 09:39:05;;;;;;;12.13;11.32;;;;;;;;;;5060554;28;20111;-54
2023/03/06 09:41:40;;;;;;;11.00;10.20;;;;;;;;;;5063321;28;20038;-57
2023/03/06 09:44:13;;;;;;;12.68;11.77;;;;;;;;;;5053570;28;20028;-57
2023/03/06 09:46:41;;;;;;;11.27;10.55;;;;;;;;;;5062644;28;20040;-57
2023/03/06 09:49:44;;;;;;;11.55;10.75;;;;;;;;;;5063377;28;20051;-56
2023/03/06 09:52:28;;;;;;;12.25;11.52;;;;;;;;;;5062958;28;20112;-57
2023/03/06 09:55:10;;;;;;;12.75;11.82;;;;;;;;;;5060868;28;20115;-57
2023/03/06 09:57:41;;;;;;;14.02;12.65;;;;;;;;;;5061979;28;20107;-57
2023/03/06 10:00:13;;;;;;;11.63;10.93;;;;;;;;;;5063445;28;20492;-56
2023/03/06 10:02:50;;;;;;;14.73;13.77;;;;;;;;;;5064031;28;20041;-55
2023/03/06 10:05:22;;;;;;;12.15;11.40;;;;;;;;;;5063432;28;20037;-55
2023/03/06 10:08:02;;;;;;;12.75;11.85;;;;;;;;;;5063488;28;20048;-56
2023/03/06 10:10:52;;;;;;;12.48;11.57;;;;;;;;;;5060088;28;20515;-56
2023/03/06 10:13:37;;;;;;;11.40;10.65;;;;;;;;;;5062151;28;20037;-57
2023/03/06 10:16:13;;;;;;;11.98;11.05;;;;;;;;;;5061437;28;20102;-56
2023/03/06 10:18:38;;;;;;;11.25;10.45;;;;;;;;;;5063025;28;20106;-56
2023/03/06 10:21:28;;;;;;;10.75;10.05;;;;;;;;;;5061412;28;20040;-56
2023/03/06 10:24:01;;;;;;;12.60;11.70;;;;;;;;;;5062549;28;20046;-56
2023/03/06 10:26:40;;;;;;;12.13;11.32;;;;;;;;;;5062575;28;20458;-56
2023/03/06 10:29:11;;;;;;;12.48;11.55;;;;;;;;;;5062669;28;20044;-57
2023/03/06 10:31:43;;;;;;;10.50;9.80;;;;;;;;;;5060542;28;20098;-57
2023/03/06 10:34:22;;;;;;;10.90;10.18;;;;;;;;;;5064180;28;20080;-56
2023/03/06 10:36:48;;;;;;;10.40;9.73;;;;;;;;;;5062564;28;20275;-57
2023/03/06 10:39:18;;;;;;;11.27;10.57;;;;;;;;;;5064502;28;20105;-57
2023/03/06 10:41:44;;;;;;;10.55;9.85;;;;;;;;;;5063402;28;20545;-57
2023/03/06 10:44:09;;;;;;;11.20;10.50;;;;;;;;;;5062616;28;20112;-56
2023/03/06 10:46:36;;;;;;;11.05;10.35;;;;;;;;;;5063622;28;20115;-56
2023/03/06 10:49:21;;;;;;;12.13;11.32;;;;;;;;;;5060657;28;20044;-56
2023/03/06 10:51:58;;;;;;;12.77;11.98;;;;;;;;;;5062725;28;20032;-56
2023/03/06 10:54:25;;;;;;;10.52;9.82;;;;;;;;;;5063146;28;20051;-57
2023/03/06 10:56:50;;;;;;;11.30;10.57;;;;;;;;;;5078029;28;20044;-56
2023/03/06 10:59:25;;;;;;;11.82;11.13;;;;;;;;;;5062404;28;20381;-57
2023/03/06 11:02:12;;;;;;;12.68;11.88;;;;;;;;;;5062793;28;20036;-57
2023/03/06 11:04:40;;;;;;;11.73;10.88;;;;;;;;;;5061296;28;20048;-57
2023/03/06 11:07:21;;;;;;;11.73;11.02;;;;;;;;;;5056101;28;20051;-56
2023/03/06 11:09:55;;;;;;;11.73;11.02;;;;;;;;;;5073012;28;20090;-59
2023/03/06 11:12:25;;;;;;;11.73;11.02;;;;;;;;;;5061723;28;20037;-56
2023/03/06 11:15:09;;;;;;;10.82;10.15;;;;;;;;;;5061305;28;20036;-58
2023/03/06 11:17:46;;;;;;;11.27;10.57;;;;;;;;;;5061974;28;20032;-57
2023/03/06 11:20:17;;;;;;;12.63;11.82;;;;;;;;;;5061471;28;20143;-59
2023/03/06 11:22:53;;;;;;;11.25;10.55;;;;;;;;;;5060681;28;20481;-59
2023/03/06 11:25:22;;;;;;;13.13;12.27;;;;;;;;;;5059735;28;20051;-56
2023/03/06 11:28:01;;;;;;;11.00;10.30;;;;;;;;;;5058934;28;20060;-57
2023/03/06 11:30:36;;;;;;;12.07;11.38;;;;;;;;;;5060356;28;20600;-57
2023/03/06 11:33:10;;;;;;;13.18;12.38;;;;;;;;;;5059784;28;20056;-57
2023/03/06 11:35:59;;;;;;;12.02;11.23;;;;;;;;;;5061511;28;20497;-57
2023/03/06 11:38:48;;;;;;;12.57;11.60;;;;;;;;;;5065811;28;20036;-59
2023/03/06 11:41:43;;;;;;;12.07;11.27;;;;;;;;;;5056588;28;20044;-57
2023/03/06 11:44:19;;;;;;;12.38;11.57;;;;;;;;;;5065341;28;20044;-59
2023/03/06 11:47:30;;;;;;;11.68;10.90;;;;;;;;;;5065259;28;20064;-57
2023/03/06 11:50:20;;;;;;;11.70;10.90;;;;;;;;;;5061372;28;20048;-59
2023/03/06 11:53:17;;;;;;;11.25;10.55;;;;;;;;;;5066007;28;20072;-57
2023/03/06 11:56:09;;;;;;;12.07;11.18;;;;;;;;;;5052464;28;20055;-57
2023/03/06 11:58:40;;;;;;;13.63;12.57;;;;;;;;;;5062553;28;20563;-57
2023/03/06 12:01:34;;;;;;;12.13;11.33;;;;;;;;;;5058469;28;20036;-57
2023/03/06 12:04:18;;;;;;;12.82;12.02;;;;;;;;;;5061339;28;20321;-58
2023/03/06 12:07:03;;;;;;;11.90;11.07;;;;;;;;;;5062916;28;20043;-57
2023/03/06 12:10:04;;;;;;;12.02;11.15;;;;;;;;;;5062779;28;20119;-57
2023/03/06 12:12:51;;;;;;;12.02;11.23;;;;;;;;;;5063041;28;20029;-56
2023/03/06 12:15:35;;;;;;;12.90;12.05;;;;;;;;;;5064494;28;20037;-56
2023/03/06 12:18:35;;;;;;;12.13;11.32;;;;;;;;;;5058754;28;20483;-58
2023/03/06 12:21:19;;;;;;;11.85;11.00;;;;;;;;;;5060190;28;20043;-57
2023/03/06 12:23:48;;;;;;;11.55;10.77;;;;;;;;;;5063865;28;20025;-57
2023/03/06 12:26:51;;;;;;;12.00;11.18;;;;;;;;;;5064104;28;20052;-56
2023/03/06 12:29:27;;;;;;;11.40;10.63;;;;;;;;;;5063450;28;20063;-55
2023/03/06 12:32:02;;;;;;;12.60;11.75;;;;;;;;;;5061505;28;20047;-56
2023/03/06 12:34:33;;;;;;;12.65;11.85;;;;;;;;;;5065369;28;20793;-56
2023/03/06 12:37:23;;;;;;;14.65;13.70;;;;;;;;;;5062307;28;20036;-56
2023/03/06 12:40:31;;;;;;;13.20;12.10;;;;;;;;;;5063063;28;20039;-56
2023/03/06 12:43:17;;;;;;;13.48;12.68;;;;;;;;;;5063608;28;20033;-55
2023/03/06 12:45:44;;;;;;;16.05;15.15;;;;;;;;;;5064015;28;20047;-55
2023/03/06 12:48:24;;;;;;;18.05;16.75;;;;;;;;;;5061317;28;20634;-54
2023/03/06 12:50:50;;;;;;;18.38;17.27;;;;;;;;;;5063232;28;20087;-55
2023/03/06 12:53:26;;;;;;;20.13;18.88;;;;;;;;;;5062322;28;20032;-55
2023/03/06 12:55:53;;;;;;;19.33;18.23;;;;;;;;;;5060550;28;20028;-55
2023/03/06 12:58:28;;;;;;;17.83;16.73;;;;;;;;;;5063298;28;20600;-56
2023/03/06 13:01:03;;;;;;;18.38;17.33;;;;;;;;;;5062696;28;20032;-56
2023/03/06 13:03:47;;;;;;;17.40;16.20;;;;;;;;;;5062551;28;20024;-54
2023/03/06 13:06:21;;;;;;;20.00;18.77;;;;;;;;;;5061848;28;20028;-57
2023/03/06 13:09:11;;;;;;;19.13;17.98;;;;;;;;;;5063249;28;20036;-57
2023/03/06 13:11:58;;;;;;;19.98;18.67;;;;;;;;;;5062267;28;20040;-57
2023/03/06 13:14:29;;;;;;;18.88;17.77;;;;;;;;;;5062912;28;20032;-58
2023/03/06 13:17:25;;;;;;;18.58;17.48;;;;;;;;;;5061289;28;20036;-57
2023/03/06 13:20:12;;;;;;;17.88;16.88;;;;;;;;;;5060238;28;20056;-57
2023/03/06 13:22:39;;;;;;;18.10;17.00;;;;;;;;;;5059263;28;20446;-57
2023/03/06 13:25:16;;;;;;;18.35;17.25;;;;;;;;;;5059969;28;20040;-57
2023/03/06 13:27:53;;;;;;;17.77;16.67;;;;;;;;;;5058885;28;20478;-57
2023/03/06 13:30:35;;;;;;;18.17;16.77;;;;;;;;;;5062498;28;20409;-56
2023/03/06 13:33:28;;;;;;;16.63;15.50;;;;;;;;;;5060069;28;20508;-56
2023/03/06 13:35:55;;;;;;;13.55;12.73;;;;;;;;;;5052985;28;20048;-57
2023/03/06 13:38:52;;;;;;;15.68;14.38;;;;;;;;;;5061323;28;20037;-55
2023/03/06 13:41:21;;;;;;;15.98;14.98;;;;;;;;;;5063054;28;20024;-54
2023/03/06 13:43:57;;;;;;;15.07;14.18;;;;;;;;;;5063096;28;20110;-53
2023/03/06 13:46:34;;;;;;;14.70;13.80;;;;;;;;;;5060250;28;20036;-52
2023/03/06 13:49:06;;;;;;;16.42;15.43;;;;;;;;;;5061563;28;20028;-54
2023/03/06 13:51:34;;;;;;;15.27;14.38;;;;;;;;;;5064822;28;20521;-55
2023/03/06 13:54:25;;;;;;;13.88;12.93;;;;;;;;;;5062211;28;20085;-54
2023/03/06 13:56:59;;;;;;;15.52;14.38;;;;;;;;;;5063290;28;20028;-56
2023/03/06 14:00:04;;;;;;;12.27;11.40;;;;;;;;;;5061355;28;20756;-55
2023/03/06 14:02:36;;;;;;;10.82;10.13;;;;;;;;;;5064244;28;20029;-55
2023/03/06 14:05:02;;;;;;;;;;;;;;;;;;5062667;28;20064;-56
2023/03/06 14:07:41;;;;;;;12.93;12.02;;;;;;;;;;5060352;28;19913;-56
2023/03/06 14:10:21;;;;;;;10.85;10.15;;;;;;;;;;5060896;28;20116;-56
2023/03/06 14:12:49;;;;;;;11.85;11.05;;;;;;;;;;5061558;28;20115;-56
2023/03/06 14:15:21;;;;;;;12.90;12.00;;;;;;;;;;5061246;28;20051;-56
2023/03/06 14:18:00;;;;;;;12.18;11.25;;;;;;;;;;5060662;28;20036;-56
2023/03/06 14:20:41;;;;;;;13.52;12.63;;;;;;;;;;5058748;28;20105;-54
2023/03/06 14:23:22;;;;;;;12.65;11.75;;;;;;;;;;5059826;28;20037;-55
2023/03/06 14:25:59;;;;;;;11.57;10.82;;;;;;;;;;5060170;28;20048;-55
2023/03/06 14:28:27;;;;;;;13.00;12.10;;;;;;;;;;5062099;28;20361;-54
2023/03/06 14:30:55;;;;;;;11.38;10.57;;;;;;;;;;5057288;28;20523;-57
2023/03/06 14:33:49;;;;;;;12.02;10.95;;;;;;;;;;5062799;28;20086;-57
2023/03/06 14:36:18;;;;;;;12.38;11.48;;;;;;;;;;5029460;28;20492;-57
2023/03/06 14:38:48;;;;;;;11.73;10.75;;;;;;;;;;5063675;28;20032;-57
2023/03/06 14:41:31;;;;;;;11.18;10.35;;;;;;;;;;5061260;28;20046;-58